Terminal Aerodrome Forecast
Issued by NWS New Orleans/Baton Rouge, LA

Home | Current Version | Previous Version | Text Only | Print | Product List | Glossary On
Versions: 1 2 3 4 5 6 7 8 9 10 11 12 13
000
FTUS44 KLIX 220316 AAA
TAFBTR
TAF AMD
KBTR 220316Z 2203/2224 13007KT P6SM BKN040
     FM220900 13006KT 5SM SHRA VCTS OVC025CB
     FM221100 14008KT 5SM SHRA VCTS OVC015CB
     FM221500 24008KT P6SM VCSH BKN020
     FM221700 27009G15KT P6SM BKN030=

USA.gov is the U.S. government's official web portal to all federal, state and local government web resources and services.